KADS/ADS METAR and TAF weather

Enter ICAO airport designator
Station Type Date Time Source
KADS METAR 2020/04/05 14:47 UTC NOAA

KADS 051447Z 06003KT 3SM BR OVC004 11/09 A3013


Station Type Date Time Source
KADS Decoded METAR 2020/04/05 14:47 UTC NOAA

Dallas / Addison Airport, TX, United States (KADS) 32-58N 096-50W
Apr 05, 2020 - 10:47 AM EDT / 2020.04.05 1447 UTC
Wind: from the ENE (060 degrees) at 3 MPH (3 KT):0
Visibility: 3 mile(s):0
Sky conditions: overcast
Weather: mist
Temperature: 51 F (11 C)
Dew Point: 48 F (9 C)
Relative Humidity: 87%
Pressure (altimeter): 30.13 in. Hg (1020 hPa)
ob: KADS 051447Z 06003KT 3SM BR OVC004 11/09 A3013
cycle: 15

Station Type Date Time Source
KADS TAF UTC NOAA

Error!

Example: see airport list